Time;durP1;ratioP1;P1;durP2;ratioP2;P2;SDS_P1;SDS_P2;PMS_P1;PMS_P2;Temp;Humidity;BMP_temperature;BMP_pressure;BME280_temperature;BME280_humidity;BME280_pressure;Samples;Min_cycle;Max_cycle;Signal;HPM_P1;HPM_P2
2022/10/21 00:02:17;;;;;;;3.20;1.50;;;14.50;71.30;;;;;;4978399;28;20038;-79
2022/10/21 00:04:43;;;;;;;2.10;1.30;;;14.50;71.40;;;;;;4983348;28;20034;-79
2022/10/21 00:07:09;;;;;;;3.53;1.55;;;14.50;71.40;;;;;;4985281;28;20033;-79
2022/10/21 00:09:35;;;;;;;3.03;1.83;;;14.50;71.90;;;;;;4987133;28;20042;-78
2022/10/21 00:12:01;;;;;;;4.65;1.75;;;14.50;71.40;;;;;;4985542;28;20055;-79
2022/10/21 00:14:27;;;;;;;3.33;1.50;;;14.50;71.50;;;;;;4986603;28;20065;-79
2022/10/21 00:16:53;;;;;;;3.00;1.77;;;14.50;71.50;;;;;;4985207;28;20034;-79
2022/10/21 00:19:21;;;;;;;2.72;1.40;;;14.50;72.00;;;;;;4984250;28;20273;-78
2022/10/21 00:21:46;;;;;;;5.03;1.75;;;14.50;71.50;;;;;;4984169;28;20292;-78
2022/10/21 00:24:12;;;;;;;4.03;1.50;;;14.50;71.50;;;;;;4983084;28;20030;-77
2022/10/21 00:26:38;;;;;;;5.53;2.20;;;14.50;71.60;;;;;;4987258;28;20147;-78
2022/10/21 00:29:04;;;;;;;4.93;1.80;;;14.50;71.60;;;;;;4988411;28;20030;-80
2022/10/21 00:31:30;;;;;;;3.72;1.67;;;14.50;71.60;;;;;;4977365;28;20037;-79
2022/10/21 00:33:56;;;;;;;1.33;1.17;;;14.50;71.60;;;;;;4968666;28;20038;-78
2022/10/21 00:36:22;;;;;;;3.45;1.85;;;14.50;71.60;;;;;;4987212;28;20037;-78
2022/10/21 00:38:48;;;;;;;4.13;1.42;;;14.60;71.80;;;;;;4984936;28;20074;-77
2022/10/21 00:41:16;;;;;;;3.10;1.58;;;14.60;71.80;;;;;;4991153;28;20269;-77
2022/10/21 00:44:13;;;;;;;3.38;1.63;;;14.60;71.80;;;;;;4989337;28;20038;-78
2022/10/21 00:46:43;;;;;;;2.70;1.60;;;14.60;71.90;;;;;;4977342;28;20430;-77
2022/10/21 00:49:25;;;;;;;1.95;1.23;;;14.60;71.80;;;;;;4988386;28;20029;-78
2022/10/21 00:51:56;;;;;;;3.72;1.70;;;14.70;72.00;;;;;;4987461;28;20511;-77
2022/10/21 00:54:24;;;;;;;3.83;1.65;;;14.70;71.90;;;;;;4990323;28;20060;-78
2022/10/21 00:56:51;;;;;;;2.65;1.38;;;14.70;71.90;;;;;;4975769;28;20152;-78
2022/10/21 00:59:18;;;;;;;3.33;2.05;;;14.70;72.00;;;;;;4985330;28;20027;-79
2022/10/21 01:01:44;;;;;;;2.58;1.40;;;14.70;71.90;;;;;;4989296;28;20036;-78
2022/10/21 01:04:10;;;;;;;3.78;1.42;;;14.70;71.90;;;;;;4982420;28;20494;-78
2022/10/21 01:06:36;;;;;;;3.00;1.65;;;14.70;72.00;;;;;;4988921;28;20040;-78
2022/10/21 01:09:04;;;;;;;2.80;1.40;;;14.70;72.00;;;;;;4985683;28;20034;-78
2022/10/21 01:11:37;;;;;;;2.22;1.40;;;14.70;72.00;;;;;;4992960;28;20041;-77
2022/10/21 01:14:45;;;;;;;2.28;1.13;;;14.70;72.00;;;;;;4983601;28;20038;-80
2022/10/21 01:17:20;;;;;;;5.05;1.48;;;14.70;72.10;;;;;;4974844;28;20397;-79
2022/10/21 01:20:01;;;;;;;2.22;1.33;;;14.70;72.00;;;;;;4987604;28;20038;-80
2022/10/21 01:22:51;;;;;;;2.58;1.20;;;14.70;72.00;;;;;;4980363;28;20038;-80
2022/10/21 01:25:43;;;;;;;3.00;1.42;;;14.70;72.00;;;;;;4979437;28;20587;-78
2022/10/21 01:28:28;;;;;;;2.70;1.30;;;14.80;72.20;;;;;;4969509;28;20661;-78
2022/10/21 01:30:59;;;;;;;5.68;2.75;;;14.80;72.10;;;;;;4986516;28;20039;-78
2022/10/21 01:33:53;;;;;;;2.00;1.33;;;14.80;72.10;;;;;;4973018;28;20039;-77
2022/10/21 01:36:29;;;;;;;2.17;1.38;;;14.80;72.20;;;;;;4990946;28;20034;-78
2022/10/21 01:39:07;;;;;;;3.65;1.13;;;14.80;72.10;;;;;;4990044;28;20026;-78
2022/10/21 01:42:25;;;;;;;2.00;1.40;;;14.80;72.10;;;;;;4988623;28;20030;-77
2022/10/21 01:45:13;;;;;;;2.92;1.23;;;14.90;72.30;;;;;;4983191;28;20041;-79
2022/10/21 01:47:45;;;;;;;3.42;1.23;;;14.90;72.30;;;;;;4991091;28;20092;-78
2022/10/21 01:50:19;;;;;;;6.28;2.42;;;14.90;72.10;;;;;;4995803;28;20038;-77
2022/10/21 01:52:51;;;;;;;2.47;1.50;;;14.90;72.20;;;;;;4980996;28;20077;-78
2022/10/21 01:55:20;;;;;;;3.47;1.73;;;14.90;72.70;;;;;;4992292;28;20478;-78
2022/10/21 01:57:53;;;;;;;2.83;1.55;;;15.00;72.30;;;;;;4989854;28;20027;-78
2022/10/21 02:00:20;;;;;;;3.97;1.85;;;14.90;72.20;;;;;;5007890;28;20034;-76
2022/10/21 02:02:48;;;;;;;2.97;1.90;;;15.00;72.40;;;;;;4988018;28;20046;-79
2022/10/21 02:05:24;;;;;;;3.65;1.65;;;14.90;72.20;;;;;;5011298;28;20034;-77
2022/10/21 02:07:51;;;;;;;3.35;1.85;;;15.00;72.40;;;;;;5010285;28;20483;-78
2022/10/21 02:10:18;;;;;;;3.22;1.80;;;15.00;72.40;;;;;;5012596;28;20022;-78
2022/10/21 02:12:48;;;;;;;2.83;1.52;;;15.00;72.40;;;;;;4992773;28;20074;-77
2022/10/21 02:15:16;;;;;;;3.08;1.83;;;15.00;72.40;;;;;;5006411;28;20038;-77
2022/10/21 02:17:50;;;;;;;4.28;1.88;;;15.00;72.40;;;;;;5011443;28;20052;-78
2022/10/21 02:20:18;;;;;;;3.83;1.55;;;15.00;72.40;;;;;;5010079;28;20045;-76
2022/10/21 02:22:46;;;;;;;2.70;1.80;;;15.00;72.40;;;;;;4975771;28;20038;-78
2022/10/21 02:25:21;;;;;;;2.53;1.58;;;15.00;72.40;;;;;;4994954;28;20035;-77
2022/10/21 02:27:51;;;;;;;3.90;2.03;;;15.00;72.50;;;;;;4996716;28;20030;-78
2022/10/21 02:30:17;;;;;;;2.55;1.63;;;15.00;72.40;;;;;;4992313;28;20030;-78
2022/10/21 02:33:22;;;;;;;5.50;2.00;;;15.10;72.60;;;;;;4996994;28;20054;-78
2022/10/21 02:36:13;;;;;;;3.58;1.70;;;15.10;72.60;;;;;;4964481;28;20160;-78
2022/10/21 02:38:48;;;;;;;4.80;2.15;;;15.00;72.40;;;;;;4991184;28;20039;-79
2022/10/21 02:41:20;;;;;;;4.18;2.10;;;15.00;72.40;;;;;;4989547;28;20031;-78
2022/10/21 02:44:02;;;;;;;2.22;1.30;;;15.10;72.60;;;;;;4981097;28;20026;-80
2022/10/21 02:46:40;;;;;;;3.63;1.85;;;15.10;72.60;;;;;;4990027;28;20099;-78
2022/10/21 02:49:06;;;;;;;2.28;1.50;;;15.10;72.70;;;;;;4971730;28;20030;-78
2022/10/21 02:51:32;;;;;;;2.28;1.48;;;15.00;72.50;;;;;;4985069;28;20058;-78
2022/10/21 02:53:58;;;;;;;3.58;1.52;;;15.10;72.70;;;;;;4990899;28;20473;-78
2022/10/21 02:56:25;;;;;;;3.53;2.35;;;15.10;72.70;;;;;;4991276;28;20030;-79
2022/10/21 02:58:51;;;;;;;3.08;2.05;;;15.10;72.80;;;;;;5003681;28;20033;-79
2022/10/21 03:01:17;;;;;;;2.78;1.80;;;15.10;72.80;;;;;;4990520;28;20044;-79
2022/10/21 03:03:43;;;;;;;2.30;1.85;;;15.10;72.80;;;;;;4990992;28;20038;-79
2022/10/21 03:06:09;;;;;;;2.20;2.00;;;15.10;72.80;;;;;;4991068;28;20039;-79
2022/10/21 03:08:35;;;;;;;2.92;2.47;;;15.10;72.80;;;;;;4991799;28;20339;-79
2022/10/21 03:11:01;;;;;;;3.17;2.28;;;15.10;72.90;;;;;;4990321;28;20034;-79
2022/10/21 03:13:27;;;;;;;3.28;2.00;;;15.10;72.90;;;;;;4988617;28;20043;-79
2022/10/21 03:15:53;;;;;;;5.22;2.90;;;15.20;73.10;;;;;;4990216;28;20138;-79
2022/10/21 03:18:19;;;;;;;3.95;2.42;;;15.20;73.10;;;;;;4990779;28;20069;-79
2022/10/21 03:20:49;;;;;;;6.50;3.28;;;15.10;73.00;;;;;;4990714;28;20039;-78
2022/10/21 03:23:19;;;;;;;5.30;2.78;;;15.20;73.30;;;;;;4990711;28;20174;-78
2022/10/21 03:25:45;;;;;;;4.13;3.13;;;15.20;73.20;;;;;;4993427;28;20022;-78
2022/10/21 03:28:11;;;;;;;4.90;3.10;;;15.20;73.20;;;;;;4991902;28;20029;-78
2022/10/21 03:30:37;;;;;;;5.53;3.80;;;15.20;73.80;;;;;;4993413;28;20057;-78
2022/10/21 03:33:05;;;;;;;4.15;2.92;;;15.20;73.80;;;;;;4989374;28;20042;-78
2022/10/21 03:35:31;;;;;;;6.13;3.30;;;15.30;73.50;;;;;;4984222;28;20064;-78
2022/10/21 03:37:56;;;;;;;4.28;3.28;;;15.30;73.40;;;;;;4994278;28;20037;-79
2022/10/21 03:40:22;;;;;;;4.13;3.47;;;15.30;73.40;;;;;;4980846;28;20058;-78
2022/10/21 03:42:49;;;;;;;4.95;3.58;;;15.30;73.50;;;;;;5000013;28;20049;-78
2022/10/21 03:45:15;;;;;;;5.38;3.50;;;15.30;73.50;;;;;;4995388;28;20026;-78
2022/10/21 03:47:41;;;;;;;3.40;3.10;;;15.30;73.50;;;;;;4989883;28;20030;-79
2022/10/21 03:50:09;;;;;;;3.97;3.42;;;15.30;73.50;;;;;;4989534;28;20041;-78
2022/10/21 03:52:35;;;;;;;6.43;3.97;;;15.30;73.60;;;;;;4983024;28;20042;-78
2022/10/21 03:55:01;;;;;;;6.32;3.35;;;15.30;73.60;;;;;;4989260;28;20381;-79
2022/10/21 03:57:27;;;;;;;5.18;3.88;;;15.30;73.60;;;;;;4993843;28;20038;-78
2022/10/21 03:59:53;;;;;;;6.55;4.07;;;15.30;73.60;;;;;;4990889;28;20042;-78
2022/10/21 04:02:19;;;;;;;4.93;3.70;;;15.30;73.60;;;;;;4989884;28;20077;-79
2022/10/21 04:04:45;;;;;;;4.00;3.60;;;15.30;73.70;;;;;;4988093;28;20034;-79
2022/10/21 04:07:11;;;;;;;5.35;3.95;;;15.30;73.70;;;;;;4989661;28;20034;-79
2022/10/21 04:09:37;;;;;;;7.90;4.57;;;15.30;73.70;;;;;;4993250;28;20044;-79
2022/10/21 04:12:03;;;;;;;6.32;5.00;;;15.30;73.80;;;;;;5001204;28;20030;-79
2022/10/21 04:14:28;;;;;;;3.63;3.20;;;15.30;73.80;;;;;;4996486;28;20076;-79
2022/10/21 04:16:54;;;;;;;6.70;4.32;;;15.40;74.10;;;;;;4997627;28;20042;-78
2022/10/21 04:19:20;;;;;;;4.57;3.65;;;15.40;74.10;;;;;;4996297;28;20023;-79
2022/10/21 04:21:46;;;;;;;4.40;4.00;;;15.40;74.10;;;;;;4994826;28;20035;-78
2022/10/21 04:24:12;;;;;;;4.97;3.35;;;15.40;74.10;;;;;;4995146;28;20453;-78
2022/10/21 04:26:40;;;;;;;6.30;3.35;;;15.40;74.20;;;;;;4996413;28;20029;-78
2022/10/21 04:29:06;;;;;;;4.47;3.30;;;15.50;74.40;;;;;;4981786;28;20129;-80
2022/10/21 04:31:32;;;;;;;5.97;3.38;;;15.50;74.40;;;;;;4994819;28;20046;-79
2022/10/21 04:33:58;;;;;;;3.92;3.13;;;15.50;74.40;;;;;;4994638;28;20097;-79
2022/10/21 04:36:24;;;;;;;3.70;3.40;;;15.60;74.60;;;;;;4995499;28;20029;-79
2022/10/21 04:38:50;;;;;;;4.30;3.10;;;15.50;74.50;;;;;;4995415;28;20046;-78
2022/10/21 04:41:17;;;;;;;4.40;3.17;;;15.60;74.70;;;;;;4995212;28;20034;-78
2022/10/21 04:43:42;;;;;;;5.53;3.08;;;15.60;75.30;;;;;;4996637;28;20454;-78
2022/10/21 04:46:10;;;;;;;5.53;3.08;;;15.60;74.80;;;;;;4996634;28;20122;-79
2022/10/21 04:48:37;;;;;;;7.35;3.20;;;15.70;75.00;;;;;;4999518;28;20036;-78
2022/10/21 04:51:04;;;;;;;5.38;3.08;;;15.70;75.10;;;;;;4994474;28;20038;-78
2022/10/21 04:53:29;;;;;;;3.80;3.33;;;15.70;75.10;;;;;;5001305;28;20033;-78
2022/10/21 04:55:55;;;;;;;6.35;3.15;;;15.70;75.10;;;;;;4976872;28;20038;-78
2022/10/21 04:58:22;;;;;;;4.55;2.85;;;15.70;75.20;;;;;;4997923;28;20041;-77
2022/10/21 05:00:51;;;;;;;4.10;3.03;;;15.70;75.20;;;;;;4997081;28;20035;-78
2022/10/21 05:03:18;;;;;;;2.90;2.55;;;15.80;75.50;;;;;;4994878;28;20037;-79
2022/10/21 05:05:47;;;;;;;4.00;2.72;;;15.80;75.50;;;;;;4999967;28;20492;-79
2022/10/21 05:08:13;;;;;;;6.78;2.42;;;15.70;75.50;;;;;;5001082;28;20029;-78
2022/10/21 05:10:39;;;;;;;4.43;3.10;;;15.80;75.60;;;;;;4976118;28;20033;-78
2022/10/21 05:13:05;;;;;;;3.72;2.33;;;15.80;75.70;;;;;;4996000;28;20061;-78
2022/10/21 05:15:32;;;;;;;3.22;2.67;;;15.80;75.80;;;;;;4990815;28;20385;-78
2022/10/21 05:17:58;;;;;;;4.18;2.38;;;15.80;75.80;;;;;;4997542;28;20049;-79
2022/10/21 05:20:24;;;;;;;3.05;2.70;;;15.90;76.10;;;;;;4993201;28;20019;-80
2022/10/21 05:22:51;;;;;;;5.00;2.45;;;15.90;76.20;;;;;;4995044;28;20095;-85
2022/10/21 05:25:17;;;;;;;9.13;3.28;;;15.90;76.20;;;;;;4998561;28;20034;-80
2022/10/21 05:27:44;;;;;;;3.15;2.05;;;15.90;76.30;;;;;;4986478;28;20120;-80
2022/10/21 05:30:11;;;;;;;6.10;2.33;;;15.90;76.90;;;;;;4995385;28;20025;-82
2022/10/21 05:32:37;;;;;;;3.67;2.08;;;16.00;76.70;;;;;;4988996;28;20101;-84
2022/10/21 05:35:04;;;;;;;5.13;2.30;;;16.00;76.70;;;;;;4969439;28;20038;-81
2022/10/21 05:37:31;;;;;;;6.40;2.88;;;16.10;77.00;;;;;;4992843;28;20042;-80
2022/10/21 05:39:57;;;;;;;6.18;2.47;;;16.10;77.10;;;;;;4990019;28;20042;-81
2022/10/21 05:42:23;;;;;;;4.22;1.90;;;16.10;77.10;;;;;;5000973;28;20030;-83
2022/10/21 05:44:49;;;;;;;5.28;2.83;;;16.20;77.30;;;;;;4992606;28;20089;-77
2022/10/21 05:47:15;;;;;;;5.45;2.47;;;16.20;77.30;;;;;;4993986;28;20074;-80
2022/10/21 05:49:41;;;;;;;3.72;1.92;;;16.20;77.40;;;;;;4997246;28;20050;-84
2022/10/21 05:52:07;;;;;;;4.85;2.13;;;16.30;77.60;;;;;;4968810;28;20058;-86
2022/10/21 05:54:33;;;;;;;7.53;3.58;;;16.30;78.10;;;;;;4990979;28;20029;-85
2022/10/21 05:56:59;;;;;;;9.73;3.17;;;16.30;77.70;;;;;;4996230;28;20030;-85
2022/10/21 05:59:25;;;;;;;7.70;2.78;;;16.30;78.00;;;;;;4987955;28;20108;-85
2022/10/21 06:01:51;;;;;;;6.68;2.58;;;16.40;78.90;;;;;;4987784;28;20110;-79
2022/10/21 06:04:17;;;;;;;8.80;4.13;;;16.40;78.40;;;;;;4989721;28;20478;-79
2022/10/21 06:06:43;;;;;;;8.77;3.03;;;16.40;78.50;;;;;;4990736;28;20036;-82
2022/10/21 06:09:09;;;;;;;11.80;4.18;;;16.40;78.70;;;;;;4992611;28;20042;-79
2022/10/21 06:11:35;;;;;;;8.10;3.03;;;16.50;79.00;;;;;;5003159;28;20041;-78
2022/10/21 06:14:01;;;;;;;8.10;3.58;;;16.50;79.00;;;;;;4985906;28;20043;-82
2022/10/21 06:16:27;;;;;;;13.00;3.67;;;16.50;79.10;;;;;;4961358;28;20044;-83
2022/10/21 06:18:54;;;;;;;8.00;3.33;;;16.60;79.30;;;;;;4975086;28;20149;-84
2022/10/21 06:21:20;;;;;;;8.48;2.88;;;16.60;79.40;;;;;;4984002;28;20031;-84
2022/10/21 06:23:51;;;;;;;7.65;2.50;;;16.60;79.40;;;;;;4988835;28;20034;-80
2022/10/21 06:26:17;;;;;;;6.82;3.08;;;16.60;79.40;;;;;;4994299;28;20028;-81
2022/10/21 06:28:44;;;;;;;8.48;3.67;;;16.60;79.40;;;;;;4993760;28;20045;-80
2022/10/21 06:31:13;;;;;;;9.25;2.80;;;16.70;79.60;;;;;;4993808;28;20072;-81
2022/10/21 06:33:40;;;;;;;7.05;2.25;;;16.70;79.60;;;;;;4988124;28;20046;-82
2022/10/21 06:36:07;;;;;;;6.75;2.30;;;16.70;79.60;;;;;;4976102;28;20280;-80
2022/10/21 06:38:35;;;;;;;7.63;2.63;;;16.70;79.50;;;;;;4999896;28;20030;-80
2022/10/21 06:41:04;;;;;;;9.88;3.67;;;16.80;79.60;;;;;;4979659;28;20026;-80
2022/10/21 06:43:32;;;;;;;8.38;2.88;;;16.80;79.60;;;;;;4998822;28;20065;-80
2022/10/21 06:46:00;;;;;;;7.50;2.25;;;16.80;79.50;;;;;;4990089;28;20540;-82
2022/10/21 06:48:27;;;;;;;7.70;2.58;;;16.90;79.60;;;;;;4984353;28;20038;-85
2022/10/21 06:51:05;;;;;;;5.90;2.40;;;16.90;79.50;;;;;;4980693;28;20046;-88
2022/10/21 06:53:32;;;;;;;8.57;1.95;;;16.90;79.50;;;;;;4991555;28;20414;-86
2022/10/21 06:56:09;;;;;;;7.82;3.40;;;17.00;79.60;;;;;;4993027;28;20512;-86
2022/10/21 06:58:38;;;;;;;10.07;3.08;;;17.00;79.50;;;;;;5001116;28;20587;-85
2022/10/21 07:01:35;;;;;;;12.68;3.95;;;17.00;79.40;;;;;;5003709;28;20126;-88
2022/10/21 07:04:02;;;;;;;8.40;2.75;;;17.00;79.30;;;;;;4970900;28;20145;-82
2022/10/21 07:06:30;;;;;;;8.80;2.08;;;17.00;79.20;;;;;;4983948;28;20030;-82
2022/10/21 07:08:57;;;;;;;12.07;4.15;;;17.10;79.30;;;;;;4994130;28;20449;-86
2022/10/21 07:11:23;;;;;;;10.50;2.33;;;17.10;79.30;;;;;;4990137;28;20081;-86
2022/10/21 07:13:49;;;;;;;8.80;2.50;;;17.10;79.20;;;;;;4988305;28;20133;-88
2022/10/21 07:16:27;;;;;;;9.48;3.47;;;17.10;79.20;;;;;;4986836;28;20027;-86
2022/10/21 07:18:54;;;;;;;8.23;2.47;;;17.10;79.20;;;;;;4986364;28;20363;-86
2022/10/21 07:21:24;;;;;;;5.60;2.05;;;17.10;79.10;;;;;;4987215;28;20022;-86
2022/10/21 07:23:59;;;;;;;8.93;2.50;;;17.10;79.00;;;;;;4993701;28;20026;-79
2022/10/21 07:26:28;;;;;;;9.35;2.65;;;17.10;79.00;;;;;;4996437;28;20030;-81
2022/10/21 07:28:57;;;;;;;8.73;2.60;;;17.20;79.00;;;;;;4985947;28;20042;-84
2022/10/21 07:31:22;;;;;;;10.13;1.90;;;17.20;79.00;;;;;;4982312;28;20400;-85
2022/10/21 07:33:48;;;;;;;7.85;3.42;;;17.20;78.90;;;;;;4987469;28;20034;-84
2022/10/21 07:36:23;;;;;;;6.57;2.67;;;17.30;78.90;;;;;;4997790;28;20038;-89
2022/10/21 07:38:50;;;;;;;8.10;2.78;;;17.30;78.80;;;;;;4990506;28;20443;-83
2022/10/21 07:41:21;;;;;;;8.90;2.28;;;17.30;78.60;;;;;;4997225;28;20023;-82
2022/10/21 07:43:48;;;;;;;7.82;2.22;;;17.40;78.70;;;;;;4993310;28;20042;-88
2022/10/21 07:46:14;;;;;;;8.90;2.17;;;17.50;78.70;;;;;;4973258;28;20038;-90
2022/10/21 07:48:40;;;;;;;6.95;2.78;;;17.50;78.50;;;;;;4983999;28;20031;-91
2022/10/21 07:51:10;;;;;;;8.88;2.30;;;17.60;78.50;;;;;;4960464;28;20158;-88
2022/10/21 07:53:37;;;;;;;5.38;2.08;;;17.70;78.60;;;;;;4988184;28;20287;-82
2022/10/21 07:56:04;;;;;;;9.02;2.88;;;17.70;78.30;;;;;;5006062;28;20434;-84
2022/10/21 07:58:30;;;;;;;10.23;3.13;;;17.80;78.20;;;;;;4992134;28;20026;-86
2022/10/21 08:00:58;;;;;;;7.60;2.60;;;18.00;78.30;;;;;;4999910;28;20030;-92
2022/10/21 08:03:24;;;;;;;10.38;3.60;;;18.00;78.00;;;;;;4997870;28;20122;-88
2022/10/21 08:05:50;;;;;;;10.18;3.00;;;18.00;77.80;;;;;;4993889;28;20035;-88
2022/10/21 08:08:20;;;;;;;11.18;4.43;;;18.10;77.80;;;;;;5008204;28;20042;-88
2022/10/21 08:10:47;;;;;;;7.55;2.92;;;18.10;77.80;;;;;;4995629;28;20030;-85
2022/10/21 08:13:14;;;;;;;6.95;2.38;;;18.10;77.80;;;;;;4989605;28;20042;-87
2022/10/21 08:15:44;;;;;;;6.25;2.40;;;18.00;77.70;;;;;;4993531;28;20021;-85
2022/10/21 08:18:11;;;;;;;11.13;3.45;;;18.00;77.70;;;;;;4993212;28;20482;-85
2022/10/21 08:20:43;;;;;;;10.40;3.60;;;18.00;77.70;;;;;;4995853;28;20166;-87
2022/10/21 08:23:10;;;;;;;10.02;3.25;;;18.00;77.70;;;;;;4994703;28;20041;-85
2022/10/21 08:25:37;;;;;;;9.38;2.15;;;18.00;77.70;;;;;;5010954;28;20062;-83
2022/10/21 08:28:04;;;;;;;8.55;2.38;;;18.00;77.70;;;;;;5013917;28;20038;-86
2022/10/21 08:30:32;;;;;;;11.52;2.90;;;18.00;77.70;;;;;;5002964;28;20087;-84
2022/10/21 08:32:58;;;;;;;8.75;2.53;;;18.00;77.60;;;;;;5009284;28;20068;-86
2022/10/21 08:35:26;;;;;;;6.43;2.95;;;18.10;77.70;;;;;;4996079;28;20050;-88
2022/10/21 08:37:53;;;;;;;5.50;2.15;;;18.10;77.60;;;;;;4979326;28;20101;-88
2022/10/21 08:40:20;;;;;;;6.97;2.75;;;18.10;77.40;;;;;;4977932;28;20073;-86
2022/10/21 08:42:46;;;;;;;10.07;2.40;;;18.20;77.50;;;;;;4980902;28;20121;-82
2022/10/21 08:45:25;;;;;;;13.07;3.08;;;18.20;77.40;;;;;;4991231;28;20405;-81
2022/10/21 08:47:54;;;;;;;11.57;2.72;;;18.30;77.40;;;;;;4989501;28;20101;-83
2022/10/21 08:50:24;;;;;;;7.88;2.75;;;18.40;77.40;;;;;;4993472;28;20093;-82
2022/10/21 08:53:04;;;;;;;9.05;2.35;;;18.50;77.30;;;;;;4990176;28;20050;-82
2022/10/21 08:55:33;;;;;;;9.38;2.22;;;18.50;77.20;;;;;;4986526;28;20030;-82
2022/10/21 08:58:00;;;;;;;7.78;2.20;;;18.50;77.00;;;;;;4994307;28;20034;-84
2022/10/21 09:00:46;;;;;;;7.30;2.60;;;18.60;76.90;;;;;;4990622;28;20094;-80
2022/10/21 09:03:31;;;;;;;9.50;2.20;;;18.70;76.90;;;;;;4990325;28;20072;-81
2022/10/21 09:06:36;;;;;;;8.25;2.28;;;18.80;76.90;;;;;;4993488;28;20038;-80
2022/10/21 09:09:14;;;;;;;10.43;3.35;;;18.80;76.70;;;;;;4973853;28;20046;-79
2022/10/21 09:12:08;;;;;;;9.18;2.65;;;18.90;76.70;;;;;;4982185;28;20084;-80
2022/10/21 09:15:09;;;;;;;11.75;3.75;;;19.00;76.60;;;;;;4990626;28;20092;-80
2022/10/21 09:17:44;;;;;;;9.10;2.55;;;19.10;76.60;;;;;;4978496;28;20043;-80
2022/10/21 09:20:27;;;;;;;8.68;3.05;;;19.10;76.40;;;;;;4977508;28;20517;-77
2022/10/21 09:23:02;;;;;;;8.77;3.28;;;19.20;76.30;;;;;;4987797;28;20098;-78
2022/10/21 09:25:44;;;;;;;16.27;4.88;;;19.20;76.20;;;;;;4994164;28;20064;-82
2022/10/21 09:28:13;;;;;;;7.45;2.72;;;19.20;76.10;;;;;;4993518;28;20177;-80
2022/10/21 09:30:41;;;;;;;10.52;2.75;;;19.20;76.10;;;;;;4994243;28;20030;-81
2022/10/21 09:33:18;;;;;;;8.55;2.58;;;19.20;76.10;;;;;;4993436;28;20097;-81
2022/10/21 09:35:51;;;;;;;15.63;5.75;;;19.20;76.00;;;;;;4992608;28;20041;-81
2022/10/21 09:38:28;;;;;;;11.50;3.17;;;19.20;76.00;;;;;;4988046;28;20037;-81
2022/10/21 09:41:02;;;;;;;9.80;3.10;;;19.20;75.90;;;;;;4986760;28;20470;-84
2022/10/21 09:43:29;;;;;;;10.98;3.08;;;19.30;76.00;;;;;;4970967;28;20275;-86
2022/10/21 09:45:56;;;;;;;10.30;3.25;;;19.30;75.90;;;;;;4984416;28;20034;-83
2022/10/21 09:48:36;;;;;;;11.80;4.20;;;19.40;75.90;;;;;;4991912;28;20026;-80
2022/10/21 09:51:30;;;;;;;8.10;2.80;;;19.40;75.60;;;;;;4989174;28;20062;-82
2022/10/21 09:54:01;;;;;;;7.85;2.78;;;19.50;75.60;;;;;;4986458;28;20591;-83
2022/10/21 09:56:51;;;;;;;10.68;2.70;;;19.60;75.70;;;;;;4985153;28;20030;-83
2022/10/21 09:59:20;;;;;;;8.73;2.60;;;19.60;75.50;;;;;;4982755;28;20099;-82
2022/10/21 10:01:47;;;;;;;10.00;2.90;;;19.70;75.50;;;;;;4992197;28;20403;-87
2022/10/21 10:04:34;;;;;;;10.35;3.17;;;19.70;75.40;;;;;;4990313;28;20026;-91
2022/10/21 10:07:17;;;;;;;9.70;2.35;;;19.80;75.30;;;;;;5014264;28;20147;-86
2022/10/21 10:09:46;;;;;;;7.72;2.85;;;19.80;75.20;;;;;;4985569;28;20038;-84
2022/10/21 10:12:20;;;;;;;9.10;2.50;;;19.90;75.20;;;;;;4984717;28;20406;-82
2022/10/21 10:14:47;;;;;;;8.20;2.97;;;19.90;75.00;;;;;;4990428;28;20022;-83
2022/10/21 10:17:16;;;;;;;10.27;3.33;;;20.00;75.10;;;;;;4984189;28;20401;-83
2022/10/21 10:19:43;;;;;;;9.40;3.05;;;20.10;75.10;;;;;;4998199;28;20096;-82
2022/10/21 10:22:15;;;;;;;11.18;2.88;;;20.20;75.00;;;;;;4974187;28;20031;-80
2022/10/21 10:24:44;;;;;;;15.43;3.85;;;20.30;74.90;;;;;;4985017;28;20022;-83
2022/10/21 10:27:18;;;;;;;12.85;3.17;;;20.40;74.80;;;;;;4975147;28;20034;-82
2022/10/21 10:29:50;;;;;;;10.90;2.92;;;20.60;74.70;;;;;;4985476;28;20091;-80
2022/10/21 10:32:17;;;;;;;9.45;2.88;;;20.80;74.70;;;;;;4990559;28;20035;-82
2022/10/21 10:34:55;;;;;;;9.35;3.13;;;20.90;74.50;;;;;;4991665;28;20289;-83
2022/10/21 10:37:25;;;;;;;10.43;3.03;;;21.10;74.20;;;;;;4990127;28;20042;-84
2022/10/21 10:39:56;;;;;;;10.45;2.65;;;21.20;73.90;;;;;;4959995;28;20080;-84
2022/10/21 10:42:26;;;;;;;8.00;3.00;;;21.40;73.80;;;;;;4989998;28;20035;-84
2022/10/21 10:44:59;;;;;;;8.25;2.72;;;21.50;74.30;;;;;;4991837;28;20022;-81
2022/10/21 10:47:29;;;;;;;9.43;3.47;;;21.50;73.50;;;;;;4995307;28;20195;-82
2022/10/21 10:49:55;;;;;;;9.27;3.35;;;21.60;73.50;;;;;;4996941;28;20026;-82
2022/10/21 10:52:25;;;;;;;7.53;3.08;;;21.60;73.30;;;;;;4995759;28;20062;-81
2022/10/21 10:55:22;;;;;;;13.55;3.45;;;21.60;73.10;;;;;;4975687;28;20034;-83
2022/10/21 10:57:53;;;;;;;9.98;3.25;;;21.70;72.90;;;;;;4985923;28;20049;-84
2022/10/21 11:00:21;;;;;;;11.77;2.90;;;21.70;72.90;;;;;;5004814;28;20077;-84
2022/10/21 11:02:58;;;;;;;8.95;3.25;;;21.70;72.80;;;;;;5015127;28;20102;-81
2022/10/21 11:05:35;;;;;;;10.82;3.03;;;21.80;72.90;;;;;;4982167;28;20560;-83
2022/10/21 11:08:22;;;;;;;8.88;3.00;;;21.80;72.70;;;;;;5000777;28;20097;-83
2022/10/21 11:10:52;;;;;;;11.23;2.72;;;21.80;72.60;;;;;;4989279;28;20035;-82
2022/10/21 11:13:23;;;;;;;9.57;3.78;;;21.80;72.50;;;;;;4994108;28;20392;-83
2022/10/21 11:15:57;;;;;;;8.10;2.90;;;21.90;72.50;;;;;;4981344;28;20105;-92
2022/10/21 11:19:12;;;;;;;13.30;3.70;;;21.90;72.40;;;;;;4998526;28;20074;-82
2022/10/21 11:21:42;;;;;;;11.07;3.53;;;22.00;72.40;;;;;;4937394;29;20088;-81
2022/10/21 11:24:26;;;;;;;13.10;3.92;;;22.10;72.40;;;;;;4922123;29;20152;-79
2022/10/21 11:27:14;;;;;;;10.32;2.97;;;22.30;72.50;;;;;;4977047;28;20152;-82
2022/10/21 11:30:02;;;;;;;10.25;2.97;;;22.40;72.30;;;;;;4991083;28;20085;-82
2022/10/21 11:32:51;;;;;;;9.60;2.75;;;22.50;72.00;;;;;;4993398;28;20049;-82
2022/10/21 11:35:36;;;;;;;9.68;3.15;;;22.70;71.90;;;;;;4984531;28;20458;-79
2022/10/21 11:38:41;;;;;;;11.50;3.58;;;22.90;71.80;;;;;;4993287;28;20030;-81
2022/10/21 11:41:21;;;;;;;9.10;3.03;;;23.10;71.40;;;;;;4991742;28;20049;-82
2022/10/21 11:44:20;;;;;;;9.13;3.30;;;23.20;71.20;;;;;;4967144;28;20090;-83
2022/10/21 11:47:15;;;;;;;7.22;2.30;;;23.30;70.80;;;;;;4984668;28;20053;-82
2022/10/21 11:50:02;;;;;;;8.27;2.83;;;23.40;70.70;;;;;;4988991;28;20041;-81
2022/10/21 11:52:36;;;;;;;9.15;3.03;;;23.40;70.50;;;;;;4986359;28;20048;-82
2022/10/21 11:55:15;;;;;;;10.27;3.22;;;23.40;70.40;;;;;;4991995;28;20557;-82
2022/10/21 11:58:12;;;;;;;7.05;2.28;;;23.40;70.10;;;;;;5004724;23;20068;-78
2022/10/21 12:00:53;;;;;;;9.00;2.85;;;23.40;69.80;;;;;;4999688;28;20392;-78
2022/10/21 12:03:50;;;;;;;6.22;2.10;;;23.50;69.90;;;;;;4999985;28;20057;-75
2022/10/21 12:06:47;;;;;;;6.95;2.15;;;23.60;69.50;;;;;;5001740;28;20485;-74
2022/10/21 12:09:13;;;;;;;10.68;2.95;;;23.70;69.30;;;;;;4989784;28;20041;-78
2022/10/21 12:11:47;;;;;;;8.43;3.03;;;23.80;69.40;;;;;;5002142;28;20362;-74
2022/10/21 12:14:28;;;;;;;7.00;2.33;;;23.80;69.10;;;;;;5001673;28;20046;-73
2022/10/21 12:16:57;;;;;;;9.32;2.85;;;23.80;68.90;;;;;;4998159;28;20037;-77
2022/10/21 12:19:25;;;;;;;7.22;2.75;;;23.70;68.90;;;;;;4998763;28;20065;-74
2022/10/21 12:21:52;;;;;;;6.93;2.28;;;23.50;68.70;;;;;;4989826;28;20823;-74
2022/10/21 12:24:30;;;;;;;9.57;2.45;;;23.50;68.80;;;;;;5001186;28;20104;-75
2022/10/21 12:27:15;;;;;;;8.50;2.90;;;23.40;68.70;;;;;;4991516;28;20506;-74
2022/10/21 12:29:51;;;;;;;7.20;2.10;;;23.30;68.70;;;;;;4997998;28;20014;-74
2022/10/21 12:32:28;;;;;;;8.10;2.17;;;23.30;68.90;;;;;;4999116;28;20045;-79
2022/10/21 12:34:55;;;;;;;6.80;2.60;;;23.30;68.90;;;;;;4997052;28;20038;-76
2022/10/21 12:37:42;;;;;;;6.07;2.42;;;23.40;69.10;;;;;;5004134;28;20045;-76
2022/10/21 12:40:16;;;;;;;6.47;2.53;;;23.40;68.90;;;;;;5003357;28;20377;-73
2022/10/21 12:42:47;;;;;;;6.18;1.70;;;23.40;69.00;;;;;;5005706;28;20056;-74
2022/10/21 12:45:34;;;;;;;6.85;1.80;;;23.40;68.90;;;;;;5004357;28;20034;-75
2022/10/21 12:48:04;;;;;;;7.53;2.70;;;23.40;68.70;;;;;;5001200;28;20038;-78
2022/10/21 12:50:33;;;;;;;5.70;1.70;;;23.40;68.90;;;;;;4980927;28;20030;-80
2022/10/21 12:53:16;;;;;;;10.07;2.90;;;23.40;68.80;;;;;;4983361;28;20526;-75
2022/10/21 12:55:48;;;;;;;5.80;2.33;;;23.30;68.60;;;;;;4984722;28;20400;-75
2022/10/21 12:58:43;;;;;;;9.68;3.00;;;23.30;68.80;;;;;;4985321;28;20745;-75
2022/10/21 13:01:34;;;;;;;10.85;4.07;;;23.20;68.70;;;;;;4977062;28;20053;-75
2022/10/21 13:04:00;;;;;;;6.75;2.53;;;23.00;68.70;;;;;;4986091;28;20030;-75
2022/10/21 13:06:49;;;;;;;7.55;2.92;;;23.00;69.10;;;;;;4984378;28;20354;-74
2022/10/21 13:09:50;;;;;;;8.82;2.83;;;22.80;68.90;;;;;;4980799;28;20036;-75
2022/10/21 13:12:25;;;;;;;8.32;2.65;;;22.70;68.90;;;;;;4941849;28;20104;-74